sensor_id;sensor_type;location;lat;lon;timestamp;temperature;humidity
16271;DHT22;8243;49.048;8.396;2023-03-14T00:01:51;11.70;99.90
16271;DHT22;8243;49.048;8.396;2023-03-14T00:04:16;11.70;99.90
16271;DHT22;8243;49.048;8.396;2023-03-14T00:06:42;11.70;99.90
16271;DHT22;8243;49.048;8.396;2023-03-14T00:09:08;11.70;99.90
16271;DHT22;8243;49.048;8.396;2023-03-14T00:11:33;11.60;99.90
16271;DHT22;8243;49.048;8.396;2023-03-14T00:13:59;11.70;99.90
16271;DHT22;8243;49.048;8.396;2023-03-14T00:16:26;11.70;99.90
16271;DHT22;8243;49.048;8.396;2023-03-14T00:18:51;11.70;99.90
16271;DHT22;8243;49.048;8.396;2023-03-14T00:21:18;11.70;99.90
16271;DHT22;8243;49.048;8.396;2023-03-14T00:23:43;11.70;99.90
16271;DHT22;8243;49.048;8.396;2023-03-14T00:26:12;11.70;99.90
16271;DHT22;8243;49.048;8.396;2023-03-14T00:28:38;11.80;99.90
16271;DHT22;8243;49.048;8.396;2023-03-14T00:31:08;11.80;99.90
16271;DHT22;8243;49.048;8.396;2023-03-14T00:33:34;11.80;99.90
16271;DHT22;8243;49.048;8.396;2023-03-14T00:36:03;11.80;99.90
16271;DHT22;8243;49.048;8.396;2023-03-14T00:38:30;11.80;99.90
16271;DHT22;8243;49.048;8.396;2023-03-14T00:40:59;11.80;99.90
16271;DHT22;8243;49.048;8.396;2023-03-14T00:43:24;11.80;99.90
16271;DHT22;8243;49.048;8.396;2023-03-14T00:45:51;11.90;99.90
16271;DHT22;8243;49.048;8.396;2023-03-14T00:48:18;11.90;99.90
16271;DHT22;8243;49.048;8.396;2023-03-14T00:50:45;11.90;99.90
16271;DHT22;8243;49.048;8.396;2023-03-14T00:53:11;11.90;99.90
16271;DHT22;8243;49.048;8.396;2023-03-14T00:55:43;12.00;99.90
16271;DHT22;8243;49.048;8.396;2023-03-14T00:58:10;11.90;99.90
16271;DHT22;8243;49.048;8.396;2023-03-14T01:00:37;12.00;99.90
16271;DHT22;8243;49.048;8.396;2023-03-14T01:03:03;12.00;99.90
16271;DHT22;8243;49.048;8.396;2023-03-14T01:05:28;12.00;99.90
16271;DHT22;8243;49.048;8.396;2023-03-14T01:07:54;12.00;99.90
16271;DHT22;8243;49.048;8.396;2023-03-14T01:10:20;12.00;99.90
16271;DHT22;8243;49.048;8.396;2023-03-14T01:12:46;12.00;99.90
16271;DHT22;8243;49.048;8.396;2023-03-14T01:15:11;12.00;99.90
16271;DHT22;8243;49.048;8.396;2023-03-14T01:17:39;11.90;99.90
16271;DHT22;8243;49.048;8.396;2023-03-14T01:20:06;11.80;99.90
16271;DHT22;8243;49.048;8.396;2023-03-14T01:22:35;11.80;99.90
16271;DHT22;8243;49.048;8.396;2023-03-14T01:25:00;11.80;99.90
16271;DHT22;8243;49.048;8.396;2023-03-14T01:27:26;11.80;99.90
16271;DHT22;8243;49.048;8.396;2023-03-14T01:29:52;11.80;99.90
16271;DHT22;8243;49.048;8.396;2023-03-14T01:32:17;11.70;99.90
16271;DHT22;8243;49.048;8.396;2023-03-14T01:34:43;11.70;99.90
16271;DHT22;8243;49.048;8.396;2023-03-14T01:37:08;11.60;99.90
16271;DHT22;8243;49.048;8.396;2023-03-14T01:39:34;11.70;99.90
16271;DHT22;8243;49.048;8.396;2023-03-14T01:42:01;11.70;99.90
16271;DHT22;8243;49.048;8.396;2023-03-14T01:44:26;11.60;99.90
16271;DHT22;8243;49.048;8.396;2023-03-14T01:46:52;11.60;99.90
16271;DHT22;8243;49.048;8.396;2023-03-14T01:49:29;11.60;99.90
16271;DHT22;8243;49.048;8.396;2023-03-14T01:52:16;11.60;99.90
16271;DHT22;8243;49.048;8.396;2023-03-14T01:54:46;11.50;99.90
16271;DHT22;8243;49.048;8.396;2023-03-14T01:59:46;11.40;99.90
16271;DHT22;8243;49.048;8.396;2023-03-14T02:02:12;11.40;99.90
16271;DHT22;8243;49.048;8.396;2023-03-14T02:04:40;11.40;99.90
16271;DHT22;8243;49.048;8.396;2023-03-14T02:07:12;11.30;99.90
16271;DHT22;8243;49.048;8.396;2023-03-14T02:09:39;11.30;99.90
16271;DHT22;8243;49.048;8.396;2023-03-14T02:12:07;11.20;99.90
16271;DHT22;8243;49.048;8.396;2023-03-14T02:14:36;11.20;99.90
16271;DHT22;8243;49.048;8.396;2023-03-14T02:17:04;11.20;99.90
16271;DHT22;8243;49.048;8.396;2023-03-14T02:22:10;11.20;99.90
16271;DHT22;8243;49.048;8.396;2023-03-14T02:27:22;11.20;99.90
16271;DHT22;8243;49.048;8.396;2023-03-14T02:29:51;11.20;99.90
16271;DHT22;8243;49.048;8.396;2023-03-14T02:32:18;11.10;99.90
16271;DHT22;8243;49.048;8.396;2023-03-14T02:34:50;11.20;99.90
16271;DHT22;8243;49.048;8.396;2023-03-14T02:37:19;11.30;99.90
16271;DHT22;8243;49.048;8.396;2023-03-14T02:39:53;11.30;99.90
16271;DHT22;8243;49.048;8.396;2023-03-14T02:42:19;11.20;99.90
16271;DHT22;8243;49.048;8.396;2023-03-14T02:45:01;11.20;99.90
16271;DHT22;8243;49.048;8.396;2023-03-14T02:57:51;11.20;99.90
16271;DHT22;8243;49.048;8.396;2023-03-14T03:00:17;11.10;99.90
16271;DHT22;8243;49.048;8.396;2023-03-14T03:02:43;11.20;99.90
16271;DHT22;8243;49.048;8.396;2023-03-14T03:05:08;11.20;99.90
16271;DHT22;8243;49.048;8.396;2023-03-14T03:07:34;11.10;99.90
16271;DHT22;8243;49.048;8.396;2023-03-14T03:09:59;11.20;99.90
16271;DHT22;8243;49.048;8.396;2023-03-14T03:12:25;11.20;99.90
16271;DHT22;8243;49.048;8.396;2023-03-14T03:14:51;11.20;99.90
16271;DHT22;8243;49.048;8.396;2023-03-14T03:17:16;11.20;99.90
16271;DHT22;8243;49.048;8.396;2023-03-14T03:19:43;11.20;99.90
16271;DHT22;8243;49.048;8.396;2023-03-14T03:22:09;11.10;99.90
16271;DHT22;8243;49.048;8.396;2023-03-14T03:24:34;11.10;99.90
16271;DHT22;8243;49.048;8.396;2023-03-14T03:27:00;11.10;99.90
16271;DHT22;8243;49.048;8.396;2023-03-14T03:29:25;11.10;99.90
16271;DHT22;8243;49.048;8.396;2023-03-14T03:31:53;11.10;99.90
16271;DHT22;8243;49.048;8.396;2023-03-14T03:34:20;11.20;99.90
16271;DHT22;8243;49.048;8.396;2023-03-14T03:36:58;11.20;99.90
16271;DHT22;8243;49.048;8.396;2023-03-14T03:39:24;11.20;99.90
16271;DHT22;8243;49.048;8.396;2023-03-14T03:41:50;11.30;99.90
16271;DHT22;8243;49.048;8.396;2023-03-14T03:44:17;11.30;99.90
16271;DHT22;8243;49.048;8.396;2023-03-14T03:46:43;11.30;99.90
16271;DHT22;8243;49.048;8.396;2023-03-14T03:49:08;11.20;99.90
16271;DHT22;8243;49.048;8.396;2023-03-14T03:51:34;11.10;99.90
16271;DHT22;8243;49.048;8.396;2023-03-14T03:53:59;11.10;99.90
16271;DHT22;8243;49.048;8.396;2023-03-14T03:56:25;11.10;99.90
16271;DHT22;8243;49.048;8.396;2023-03-14T03:58:50;11.10;99.90
16271;DHT22;8243;49.048;8.396;2023-03-14T04:01:16;11.10;99.90
16271;DHT22;8243;49.048;8.396;2023-03-14T04:03:41;11.10;99.90
16271;DHT22;8243;49.048;8.396;2023-03-14T04:06:12;11.20;99.90
16271;DHT22;8243;49.048;8.396;2023-03-14T04:08:38;11.30;99.90
16271;DHT22;8243;49.048;8.396;2023-03-14T04:11:04;11.30;99.80
16271;DHT22;8243;49.048;8.396;2023-03-14T04:13:30;11.20;99.20
16271;DHT22;8243;49.048;8.396;2023-03-14T04:15:56;11.20;98.40
16271;DHT22;8243;49.048;8.396;2023-03-14T04:18:22;11.10;97.80
16271;DHT22;8243;49.048;8.396;2023-03-14T04:20:54;11.10;97.40
16271;DHT22;8243;49.048;8.396;2023-03-14T04:23:20;11.10;96.90
16271;DHT22;8243;49.048;8.396;2023-03-14T04:25:47;11.10;96.90
16271;DHT22;8243;49.048;8.396;2023-03-14T04:28:12;11.00;96.10
16271;DHT22;8243;49.048;8.396;2023-03-14T04:30:38;10.90;96.30
16271;DHT22;8243;49.048;8.396;2023-03-14T04:33:03;10.90;96.20
16271;DHT22;8243;49.048;8.396;2023-03-14T04:35:32;10.80;96.10
16271;DHT22;8243;49.048;8.396;2023-03-14T04:37:58;10.80;96.10
16271;DHT22;8243;49.048;8.396;2023-03-14T04:40:25;10.80;96.00
16271;DHT22;8243;49.048;8.396;2023-03-14T04:42:50;10.80;96.10
16271;DHT22;8243;49.048;8.396;2023-03-14T04:45:16;10.70;96.30
16271;DHT22;8243;49.048;8.396;2023-03-14T04:47:42;10.70;96.20
16271;DHT22;8243;49.048;8.396;2023-03-14T04:50:08;10.70;96.30
16271;DHT22;8243;49.048;8.396;2023-03-14T04:52:34;10.70;96.30
16271;DHT22;8243;49.048;8.396;2023-03-14T04:54:59;10.70;96.40
16271;DHT22;8243;49.048;8.396;2023-03-14T04:57:25;10.80;96.30
16271;DHT22;8243;49.048;8.396;2023-03-14T04:59:50;10.80;95.60
16271;DHT22;8243;49.048;8.396;2023-03-14T05:02:16;10.90;95.40
16271;DHT22;8243;49.048;8.396;2023-03-14T05:04:42;11.00;94.70
16271;DHT22;8243;49.048;8.396;2023-03-14T05:07:07;11.00;94.40
16271;DHT22;8243;49.048;8.396;2023-03-14T05:09:33;11.10;94.10
16271;DHT22;8243;49.048;8.396;2023-03-14T05:11:58;11.20;93.30
16271;DHT22;8243;49.048;8.396;2023-03-14T05:14:24;11.20;91.80
16271;DHT22;8243;49.048;8.396;2023-03-14T05:16:49;11.30;90.80
16271;DHT22;8243;49.048;8.396;2023-03-14T05:19:15;11.40;90.70
16271;DHT22;8243;49.048;8.396;2023-03-14T05:21:40;11.40;90.30
16271;DHT22;8243;49.048;8.396;2023-03-14T05:24:07;11.40;90.00
16271;DHT22;8243;49.048;8.396;2023-03-14T05:26:33;11.40;90.00
16271;DHT22;8243;49.048;8.396;2023-03-14T05:28:58;11.40;89.20
16271;DHT22;8243;49.048;8.396;2023-03-14T05:31:26;11.40;88.50
16271;DHT22;8243;49.048;8.396;2023-03-14T05:33:51;11.40;86.70
16271;DHT22;8243;49.048;8.396;2023-03-14T05:36:17;11.40;87.00
16271;DHT22;8243;49.048;8.396;2023-03-14T05:38:42;11.40;86.50
16271;DHT22;8243;49.048;8.396;2023-03-14T05:41:08;11.40;86.10
16271;DHT22;8243;49.048;8.396;2023-03-14T05:43:34;11.40;85.60
16271;DHT22;8243;49.048;8.396;2023-03-14T05:45:59;11.40;85.60
16271;DHT22;8243;49.048;8.396;2023-03-14T05:48:27;11.30;85.50
16271;DHT22;8243;49.048;8.396;2023-03-14T05:50:57;11.20;86.30
16271;DHT22;8243;49.048;8.396;2023-03-14T05:53:23;11.10;87.00
16271;DHT22;8243;49.048;8.396;2023-03-14T05:55:54;11.00;87.40
16271;DHT22;8243;49.048;8.396;2023-03-14T05:58:22;11.00;87.40
16271;DHT22;8243;49.048;8.396;2023-03-14T06:00:47;10.90;88.40
16271;DHT22;8243;49.048;8.396;2023-03-14T06:03:14;10.90;87.90
16271;DHT22;8243;49.048;8.396;2023-03-14T06:05:40;10.90;88.40
16271;DHT22;8243;49.048;8.396;2023-03-14T06:08:05;10.90;88.30
16271;DHT22;8243;49.048;8.396;2023-03-14T06:10:32;10.90;88.20
16271;DHT22;8243;49.048;8.396;2023-03-14T06:13:04;10.80;88.70
16271;DHT22;8243;49.048;8.396;2023-03-14T06:15:30;10.80;88.70
16271;DHT22;8243;49.048;8.396;2023-03-14T06:17:55;10.80;89.40
16271;DHT22;8243;49.048;8.396;2023-03-14T06:20:40;10.80;89.70
16271;DHT22;8243;49.048;8.396;2023-03-14T06:23:06;10.90;89.30
16271;DHT22;8243;49.048;8.396;2023-03-14T06:25:33;10.90;89.20
16271;DHT22;8243;49.048;8.396;2023-03-14T06:27:59;10.90;88.40
16271;DHT22;8243;49.048;8.396;2023-03-14T06:30:24;11.00;87.70
16271;DHT22;8243;49.048;8.396;2023-03-14T06:32:50;11.00;87.80
16271;DHT22;8243;49.048;8.396;2023-03-14T06:35:31;11.00;87.20
16271;DHT22;8243;49.048;8.396;2023-03-14T06:37:57;11.00;87.50
16271;DHT22;8243;49.048;8.396;2023-03-14T06:40:36;11.00;87.30
16271;DHT22;8243;49.048;8.396;2023-03-14T06:43:01;11.10;86.10
16271;DHT22;8243;49.048;8.396;2023-03-14T06:45:27;11.20;86.30
16271;DHT22;8243;49.048;8.396;2023-03-14T06:47:52;11.30;84.60
16271;DHT22;8243;49.048;8.396;2023-03-14T06:50:18;11.40;84.10
16271;DHT22;8243;49.048;8.396;2023-03-14T06:52:44;11.40;84.00
16271;DHT22;8243;49.048;8.396;2023-03-14T06:55:20;11.50;83.00
16271;DHT22;8243;49.048;8.396;2023-03-14T06:57:46;11.50;82.10
16271;DHT22;8243;49.048;8.396;2023-03-14T07:03:27;11.60;81.60
16271;DHT22;8243;49.048;8.396;2023-03-14T07:05:55;11.70;81.00
16271;DHT22;8243;49.048;8.396;2023-03-14T07:08:39;11.70;80.50
16271;DHT22;8243;49.048;8.396;2023-03-14T07:11:05;11.80;79.40
16271;DHT22;8243;49.048;8.396;2023-03-14T07:13:31;11.80;78.50
16271;DHT22;8243;49.048;8.396;2023-03-14T07:15:56;11.80;76.80
16271;DHT22;8243;49.048;8.396;2023-03-14T07:18:30;11.90;75.20
16271;DHT22;8243;49.048;8.396;2023-03-14T07:20:56;12.00;74.40
16271;DHT22;8243;49.048;8.396;2023-03-14T07:23:21;12.00;74.40
16271;DHT22;8243;49.048;8.396;2023-03-14T07:25:47;12.00;73.80
16271;DHT22;8243;49.048;8.396;2023-03-14T07:28:15;12.00;74.10
16271;DHT22;8243;49.048;8.396;2023-03-14T07:30:41;12.10;73.20
16271;DHT22;8243;49.048;8.396;2023-03-14T07:33:06;12.10;73.80
16271;DHT22;8243;49.048;8.396;2023-03-14T07:35:32;12.20;73.30
16271;DHT22;8243;49.048;8.396;2023-03-14T07:37:57;12.20;71.80
16271;DHT22;8243;49.048;8.396;2023-03-14T07:43:39;12.50;70.10
16271;DHT22;8243;49.048;8.396;2023-03-14T07:46:04;12.70;67.90
16271;DHT22;8243;49.048;8.396;2023-03-14T07:48:32;12.80;67.00
16271;DHT22;8243;49.048;8.396;2023-03-14T07:50:58;13.00;65.20
16271;DHT22;8243;49.048;8.396;2023-03-14T07:53:43;13.40;62.00
16271;DHT22;8243;49.048;8.396;2023-03-14T07:56:09;13.60;60.40
16271;DHT22;8243;49.048;8.396;2023-03-14T07:58:39;13.60;59.50
16271;DHT22;8243;49.048;8.396;2023-03-14T08:01:04;13.70;58.90
16271;DHT22;8243;49.048;8.396;2023-03-14T08:03:30;13.50;59.80
16271;DHT22;8243;49.048;8.396;2023-03-14T08:05:56;13.30;63.10
16271;DHT22;8243;49.048;8.396;2023-03-14T08:08:22;13.00;63.40
16271;DHT22;8243;49.048;8.396;2023-03-14T08:10:49;12.90;65.70
16271;DHT22;8243;49.048;8.396;2023-03-14T08:13:14;12.90;65.80
16271;DHT22;8243;49.048;8.396;2023-03-14T08:15:40;12.90;64.50
16271;DHT22;8243;49.048;8.396;2023-03-14T08:18:06;12.90;64.80
16271;DHT22;8243;49.048;8.396;2023-03-14T08:20:31;13.00;64.90
16271;DHT22;8243;49.048;8.396;2023-03-14T08:22:59;12.90;68.10
16271;DHT22;8243;49.048;8.396;2023-03-14T08:25:28;13.00;68.80
16271;DHT22;8243;49.048;8.396;2023-03-14T08:27:55;12.90;68.40
16271;DHT22;8243;49.048;8.396;2023-03-14T08:30:22;13.00;69.20
16271;DHT22;8243;49.048;8.396;2023-03-14T08:32:47;13.00;69.90
16271;DHT22;8243;49.048;8.396;2023-03-14T08:35:14;13.00;67.30
16271;DHT22;8243;49.048;8.396;2023-03-14T08:37:42;13.00;68.20
16271;DHT22;8243;49.048;8.396;2023-03-14T08:40:08;12.90;69.20
16271;DHT22;8243;49.048;8.396;2023-03-14T08:42:42;12.70;69.90
16271;DHT22;8243;49.048;8.396;2023-03-14T08:45:10;12.80;70.00
16271;DHT22;8243;49.048;8.396;2023-03-14T08:47:36;12.90;70.50
16271;DHT22;8243;49.048;8.396;2023-03-14T08:50:03;13.00;69.30
16271;DHT22;8243;49.048;8.396;2023-03-14T08:52:29;13.00;68.20
16271;DHT22;8243;49.048;8.396;2023-03-14T08:54:56;13.00;68.00
16271;DHT22;8243;49.048;8.396;2023-03-14T08:57:21;13.10;68.50
16271;DHT22;8243;49.048;8.396;2023-03-14T08:59:47;13.00;67.30
16271;DHT22;8243;49.048;8.396;2023-03-14T09:02:13;13.10;67.30
16271;DHT22;8243;49.048;8.396;2023-03-14T09:04:41;13.00;65.90
16271;DHT22;8243;49.048;8.396;2023-03-14T09:07:07;12.90;67.10
16271;DHT22;8243;49.048;8.396;2023-03-14T09:09:33;12.90;66.50
16271;DHT22;8243;49.048;8.396;2023-03-14T09:11:58;12.80;65.80
16271;DHT22;8243;49.048;8.396;2023-03-14T09:14:24;12.90;64.80
16271;DHT22;8243;49.048;8.396;2023-03-14T09:16:50;12.90;64.70
16271;DHT22;8243;49.048;8.396;2023-03-14T09:19:16;13.10;63.20
16271;DHT22;8243;49.048;8.396;2023-03-14T09:21:42;13.20;62.50
16271;DHT22;8243;49.048;8.396;2023-03-14T09:24:07;13.50;61.00
16271;DHT22;8243;49.048;8.396;2023-03-14T09:26:33;13.50;59.50
16271;DHT22;8243;49.048;8.396;2023-03-14T09:28:58;13.40;59.40
16271;DHT22;8243;49.048;8.396;2023-03-14T09:31:24;13.50;59.60
16271;DHT22;8243;49.048;8.396;2023-03-14T09:33:50;13.50;59.40
16271;DHT22;8243;49.048;8.396;2023-03-14T09:36:20;13.60;59.60
16271;DHT22;8243;49.048;8.396;2023-03-14T09:38:52;13.80;58.30
16271;DHT22;8243;49.048;8.396;2023-03-14T09:41:43;14.00;57.10
16271;DHT22;8243;49.048;8.396;2023-03-14T09:44:19;13.90;56.50
16271;DHT22;8243;49.048;8.396;2023-03-14T09:46:50;13.70;56.20
16271;DHT22;8243;49.048;8.396;2023-03-14T09:49:20;13.60;57.30
16271;DHT22;8243;49.048;8.396;2023-03-14T09:51:50;13.40;58.80
16271;DHT22;8243;49.048;8.396;2023-03-14T09:57:02;13.30;60.40
16271;DHT22;8243;49.048;8.396;2023-03-14T09:59:29;13.50;60.20
16271;DHT22;8243;49.048;8.396;2023-03-14T10:02:00;13.70;62.60
16271;DHT22;8243;49.048;8.396;2023-03-14T10:04:27;14.00;61.30
16271;DHT22;8243;49.048;8.396;2023-03-14T10:06:53;14.00;60.90
16271;DHT22;8243;49.048;8.396;2023-03-14T10:09:23;13.60;62.60
16271;DHT22;8243;49.048;8.396;2023-03-14T10:11:56;13.40;67.30
16271;DHT22;8243;49.048;8.396;2023-03-14T10:14:31;13.30;70.80
16271;DHT22;8243;49.048;8.396;2023-03-14T10:17:05;13.10;73.20
16271;DHT22;8243;49.048;8.396;2023-03-14T10:19:32;13.00;78.10
16271;DHT22;8243;49.048;8.396;2023-03-14T10:22:01;12.90;82.50
16271;DHT22;8243;49.048;8.396;2023-03-14T10:24:34;12.80;89.10
16271;DHT22;8243;49.048;8.396;2023-03-14T10:27:02;12.70;88.10
16271;DHT22;8243;49.048;8.396;2023-03-14T10:29:32;12.80;92.80
16271;DHT22;8243;49.048;8.396;2023-03-14T10:32:04;12.70;92.00
16271;DHT22;8243;49.048;8.396;2023-03-14T10:34:35;12.60;93.20
16271;DHT22;8243;49.048;8.396;2023-03-14T10:42:27;12.60;97.90
16271;DHT22;8243;49.048;8.396;2023-03-14T10:45:22;12.70;99.90
16271;DHT22;8243;49.048;8.396;2023-03-14T10:47:50;12.60;99.90
16271;DHT22;8243;49.048;8.396;2023-03-14T10:50:29;12.50;99.90
16271;DHT22;8243;49.048;8.396;2023-03-14T10:52:55;12.30;99.90
16271;DHT22;8243;49.048;8.396;2023-03-14T10:55:23;11.80;99.90
16271;DHT22;8243;49.048;8.396;2023-03-14T10:57:50;11.70;99.90
16271;DHT22;8243;49.048;8.396;2023-03-14T11:00:18;11.60;99.90
16271;DHT22;8243;49.048;8.396;2023-03-14T11:07:53;11.80;99.90
16271;DHT22;8243;49.048;8.396;2023-03-14T11:10:34;11.70;99.90
16271;DHT22;8243;49.048;8.396;2023-03-14T11:13:15;11.70;99.90
16271;DHT22;8243;49.048;8.396;2023-03-14T11:26:24;11.30;99.90
16271;DHT22;8243;49.048;8.396;2023-03-14T11:28:57;11.40;99.90
16271;DHT22;8243;49.048;8.396;2023-03-14T11:31:31;11.50;99.90
16271;DHT22;8243;49.048;8.396;2023-03-14T11:36:43;11.40;99.90
16271;DHT22;8243;49.048;8.396;2023-03-14T11:39:15;11.20;99.90
16271;DHT22;8243;49.048;8.396;2023-03-14T11:42:02;11.20;99.90
16271;DHT22;8243;49.048;8.396;2023-03-14T11:44:37;10.90;99.90
16271;DHT22;8243;49.048;8.396;2023-03-14T11:47:08;10.60;99.90
16271;DHT22;8243;49.048;8.396;2023-03-14T11:50:02;10.50;99.90
16271;DHT22;8243;49.048;8.396;2023-03-14T11:55:35;10.10;99.90
16271;DHT22;8243;49.048;8.396;2023-03-14T11:58:20;10.00;99.90
16271;DHT22;8243;49.048;8.396;2023-03-14T12:00:49;10.00;99.90
16271;DHT22;8243;49.048;8.396;2023-03-14T12:03:29;9.90;99.90
16271;DHT22;8243;49.048;8.396;2023-03-14T12:11:13;9.80;99.90
16271;DHT22;8243;49.048;8.396;2023-03-14T12:13:49;9.80;99.90
16271;DHT22;8243;49.048;8.396;2023-03-14T12:18:51;10.10;98.20
16271;DHT22;8243;49.048;8.396;2023-03-14T12:21:21;10.20;97.20
16271;DHT22;8243;49.048;8.396;2023-03-14T12:23:55;10.20;94.60
16271;DHT22;8243;49.048;8.396;2023-03-14T12:26:23;10.40;94.10
16271;DHT22;8243;49.048;8.396;2023-03-14T12:39:33;11.20;79.90
16271;DHT22;8243;49.048;8.396;2023-03-14T12:50:13;12.20;50.80
16271;DHT22;8243;49.048;8.396;2023-03-14T12:52:56;12.10;47.70
16271;DHT22;8243;49.048;8.396;2023-03-14T12:55:36;12.00;40.00
16271;DHT22;8243;49.048;8.396;2023-03-14T12:58:38;11.80;36.00
16271;DHT22;8243;49.048;8.396;2023-03-14T13:01:05;11.70;32.30
16271;DHT22;8243;49.048;8.396;2023-03-14T13:03:52;11.80;30.70
16271;DHT22;8243;49.048;8.396;2023-03-14T13:06:47;11.80;28.90
16271;DHT22;8243;49.048;8.396;2023-03-14T13:12:10;11.50;25.80
16271;DHT22;8243;49.048;8.396;2023-03-14T13:14:41;11.60;25.30
16271;DHT22;8243;49.048;8.396;2023-03-14T13:17:11;11.40;22.40
16271;DHT22;8243;49.048;8.396;2023-03-14T13:19:38;11.30;22.20
16271;DHT22;8243;49.048;8.396;2023-03-14T13:22:06;11.20;21.80
16271;DHT22;8243;49.048;8.396;2023-03-14T13:24:40;11.30;21.40
16271;DHT22;8243;49.048;8.396;2023-03-14T13:27:16;11.30;21.20
16271;DHT22;8243;49.048;8.396;2023-03-14T13:29:50;11.20;20.00
16271;DHT22;8243;49.048;8.396;2023-03-14T13:32:19;11.20;19.90
16271;DHT22;8243;49.048;8.396;2023-03-14T13:34:56;11.20;19.10
16271;DHT22;8243;49.048;8.396;2023-03-14T13:37:23;11.20;18.70
16271;DHT22;8243;49.048;8.396;2023-03-14T13:39:50;11.10;18.30
16271;DHT22;8243;49.048;8.396;2023-03-14T13:42:17;11.10;18.90
16271;DHT22;8243;49.048;8.396;2023-03-14T13:44:43;11.20;17.30
16271;DHT22;8243;49.048;8.396;2023-03-14T13:47:24;11.10;16.20
16271;DHT22;8243;49.048;8.396;2023-03-14T13:49:52;11.00;15.70
16271;DHT22;8243;49.048;8.396;2023-03-14T13:52:29;11.00;16.20
16271;DHT22;8243;49.048;8.396;2023-03-14T13:54:57;10.90;15.40
16271;DHT22;8243;49.048;8.396;2023-03-14T13:57:23;10.80;14.80
16271;DHT22;8243;49.048;8.396;2023-03-14T14:00:03;10.90;15.30
16271;DHT22;8243;49.048;8.396;2023-03-14T14:02:33;11.10;15.60
16271;DHT22;8243;49.048;8.396;2023-03-14T14:05:00;11.20;14.20
16271;DHT22;8243;49.048;8.396;2023-03-14T14:07:26;11.40;14.90
16271;DHT22;8243;49.048;8.396;2023-03-14T14:09:52;11.60;13.80
16271;DHT22;8243;49.048;8.396;2023-03-14T14:12:37;11.60;13.40
16271;DHT22;8243;49.048;8.396;2023-03-14T14:15:11;11.90;13.50
16271;DHT22;8243;49.048;8.396;2023-03-14T14:17:41;11.90;12.00
16271;DHT22;8243;49.048;8.396;2023-03-14T14:20:16;11.90;11.80
16271;DHT22;8243;49.048;8.396;2023-03-14T14:22:44;11.80;11.10
16271;DHT22;8243;49.048;8.396;2023-03-14T14:25:13;11.90;11.60
16271;DHT22;8243;49.048;8.396;2023-03-14T14:27:43;11.80;11.30
16271;DHT22;8243;49.048;8.396;2023-03-14T14:32:48;12.10;11.00
16271;DHT22;8243;49.048;8.396;2023-03-14T14:38:21;12.50;11.20
16271;DHT22;8243;49.048;8.396;2023-03-14T14:41:00;12.30;10.70
16271;DHT22;8243;49.048;8.396;2023-03-14T14:43:28;12.20;11.30
16271;DHT22;8243;49.048;8.396;2023-03-14T14:45:56;12.10;11.00
16271;DHT22;8243;49.048;8.396;2023-03-14T14:48:27;12.30;11.10
16271;DHT22;8243;49.048;8.396;2023-03-14T14:51:00;12.40;11.50
16271;DHT22;8243;49.048;8.396;2023-03-14T14:53:41;12.40;11.60
16271;DHT22;8243;49.048;8.396;2023-03-14T14:56:19;12.50;12.00
16271;DHT22;8243;49.048;8.396;2023-03-14T14:58:48;12.20;11.30
16271;DHT22;8243;49.048;8.396;2023-03-14T15:01:19;11.80;11.70
16271;DHT22;8243;49.048;8.396;2023-03-14T15:03:49;11.50;11.90
16271;DHT22;8243;49.048;8.396;2023-03-14T15:06:16;11.40;13.60
16271;DHT22;8243;49.048;8.396;2023-03-14T15:08:48;11.40;13.00
16271;DHT22;8243;49.048;8.396;2023-03-14T15:11:17;11.20;13.10
16271;DHT22;8243;49.048;8.396;2023-03-14T15:13:44;11.10;13.90
16271;DHT22;8243;49.048;8.396;2023-03-14T15:16:11;11.00;14.00
16271;DHT22;8243;49.048;8.396;2023-03-14T15:18:37;11.00;14.30
16271;DHT22;8243;49.048;8.396;2023-03-14T15:21:03;11.20;14.30
16271;DHT22;8243;49.048;8.396;2023-03-14T15:23:30;11.30;13.90
16271;DHT22;8243;49.048;8.396;2023-03-14T15:25:55;11.40;13.20
16271;DHT22;8243;49.048;8.396;2023-03-14T15:28:23;11.40;14.10
16271;DHT22;8243;49.048;8.396;2023-03-14T15:30:52;11.50;13.60
16271;DHT22;8243;49.048;8.396;2023-03-14T15:33:18;11.50;13.90
16271;DHT22;8243;49.048;8.396;2023-03-14T15:35:44;11.40;14.60
16271;DHT22;8243;49.048;8.396;2023-03-14T15:38:12;11.20;14.90
16271;DHT22;8243;49.048;8.396;2023-03-14T15:40:38;11.20;15.10
16271;DHT22;8243;49.048;8.396;2023-03-14T15:43:04;11.10;15.20
16271;DHT22;8243;49.048;8.396;2023-03-14T15:45:29;11.00;15.40
16271;DHT22;8243;49.048;8.396;2023-03-14T15:47:55;10.90;16.10
16271;DHT22;8243;49.048;8.396;2023-03-14T15:50:21;10.90;16.20
16271;DHT22;8243;49.048;8.396;2023-03-14T15:52:53;10.70;16.80
16271;DHT22;8243;49.048;8.396;2023-03-14T15:55:19;10.60;16.90
16271;DHT22;8243;49.048;8.396;2023-03-14T15:57:45;10.50;17.40
16271;DHT22;8243;49.048;8.396;2023-03-14T16:00:16;10.50;18.00
16271;DHT22;8243;49.048;8.396;2023-03-14T16:02:46;10.40;18.20
16271;DHT22;8243;49.048;8.396;2023-03-14T16:05:12;10.40;18.40
16271;DHT22;8243;49.048;8.396;2023-03-14T16:07:39;10.30;18.50
16271;DHT22;8243;49.048;8.396;2023-03-14T16:10:05;10.30;19.10
16271;DHT22;8243;49.048;8.396;2023-03-14T16:12:32;10.20;19.20
16271;DHT22;8243;49.048;8.396;2023-03-14T16:14:58;10.20;19.10
16271;DHT22;8243;49.048;8.396;2023-03-14T16:17:24;10.10;19.40
16271;DHT22;8243;49.048;8.396;2023-03-14T16:19:49;10.00;19.40
16271;DHT22;8243;49.048;8.396;2023-03-14T16:22:15;10.00;19.70
16271;DHT22;8243;49.048;8.396;2023-03-14T16:24:41;9.90;21.40
16271;DHT22;8243;49.048;8.396;2023-03-14T16:27:06;9.80;21.50
16271;DHT22;8243;49.048;8.396;2023-03-14T16:29:32;9.70;22.60
16271;DHT22;8243;49.048;8.396;2023-03-14T16:31:58;9.70;24.10
16271;DHT22;8243;49.048;8.396;2023-03-14T16:34:23;9.60;24.20
16271;DHT22;8243;49.048;8.396;2023-03-14T16:36:49;9.50;24.30
16271;DHT22;8243;49.048;8.396;2023-03-14T16:39:17;9.50;23.20
16271;DHT22;8243;49.048;8.396;2023-03-14T16:41:43;9.40;23.50
16271;DHT22;8243;49.048;8.396;2023-03-14T16:44:09;9.30;23.60
16271;DHT22;8243;49.048;8.396;2023-03-14T16:46:34;9.20;24.10
16271;DHT22;8243;49.048;8.396;2023-03-14T16:49:01;9.20;25.00
16271;DHT22;8243;49.048;8.396;2023-03-14T16:51:27;9.10;25.10
16271;DHT22;8243;49.048;8.396;2023-03-14T16:53:53;9.00;25.80
16271;DHT22;8243;49.048;8.396;2023-03-14T16:56:35;8.90;26.90
16271;DHT22;8243;49.048;8.396;2023-03-14T16:59:00;8.90;27.70
16271;DHT22;8243;49.048;8.396;2023-03-14T17:01:32;8.90;28.80
16271;DHT22;8243;49.048;8.396;2023-03-14T17:03:57;8.90;29.40
16271;DHT22;8243;49.048;8.396;2023-03-14T17:06:26;8.80;29.10
16271;DHT22;8243;49.048;8.396;2023-03-14T17:08:54;8.80;29.20
16271;DHT22;8243;49.048;8.396;2023-03-14T17:11:20;8.80;29.40
16271;DHT22;8243;49.048;8.396;2023-03-14T17:13:45;8.80;30.30
16271;DHT22;8243;49.048;8.396;2023-03-14T17:16:11;8.70;30.90
16271;DHT22;8243;49.048;8.396;2023-03-14T17:18:45;8.70;32.30
16271;DHT22;8243;49.048;8.396;2023-03-14T17:21:11;8.70;33.30
16271;DHT22;8243;49.048;8.396;2023-03-14T17:23:37;8.60;34.20
16271;DHT22;8243;49.048;8.396;2023-03-14T17:26:03;8.60;35.30